createdAt,value
2023-04-01T00:01:17.708Z,8.57
2023-04-01T00:03:46.490Z,8.58
2023-04-01T00:06:17.588Z,8.57
2023-04-01T00:08:46.052Z,8.52
2023-04-01T00:11:15.988Z,8.41
2023-04-01T00:13:46.827Z,8.29
2023-04-01T00:18:51.169Z,8.14
2023-04-01T00:21:21.719Z,8.06
2023-04-01T00:23:52.091Z,7.99
2023-04-01T00:26:22.993Z,7.95
2023-04-01T00:28:52.113Z,7.93
2023-04-01T00:31:20.506Z,7.92
2023-04-01T00:33:49.158Z,7.95
2023-04-01T00:36:20.129Z,8.02
2023-04-01T00:38:49.564Z,8.09
2023-04-01T00:41:19.216Z,8.06
2023-04-01T00:43:49.841Z,7.97
2023-04-01T00:46:18.009Z,7.91
2023-04-01T00:48:57.141Z,7.86
2023-04-01T00:51:29.071Z,7.83
2023-04-01T00:54:02.854Z,7.81
2023-04-01T00:56:42.274Z,7.82
2023-04-01T00:59:27.584Z,7.86
2023-04-01T01:01:56.254Z,7.92
2023-04-01T01:04:30.408Z,8.02
2023-04-01T01:07:07.315Z,8.09
2023-04-01T01:09:45.112Z,8.16
2023-04-01T01:12:28.795Z,8.19
2023-04-01T01:15:12.712Z,8.19
2023-04-01T01:18:25.501Z,8.19
2023-04-01T01:21:19.270Z,8.17
2023-04-01T01:24:05.705Z,8.12
2023-04-01T01:26:41.160Z,8.09
2023-04-01T01:29:21.555Z,8.09
2023-04-01T01:32:26.930Z,8.11
2023-04-01T01:34:59.025Z,8.13
2023-04-01T01:37:30.113Z,8.13
2023-04-01T01:40:03.883Z,8.12
2023-04-01T01:42:38.441Z,8.09
2023-04-01T01:45:10.221Z,8.09
2023-04-01T01:47:39.384Z,8.09
2023-04-01T01:50:10.201Z,8.07
2023-04-01T01:52:38.316Z,8.03
2023-04-01T01:55:33.303Z,7.99
2023-04-01T01:58:20.912Z,7.92
2023-04-01T02:02:08.781Z,7.87
2023-04-01T02:04:40.763Z,7.85
2023-04-01T02:07:17.060Z,7.85
2023-04-01T02:09:45.716Z,7.87
2023-04-01T02:12:16.641Z,7.92
2023-04-01T02:14:48.857Z,7.99
2023-04-01T02:17:21.263Z,8.04
2023-04-01T02:19:55.118Z,8.05
2023-04-01T02:22:33.060Z,8.11
2023-04-01T02:25:09.286Z,8.18
2023-04-01T02:27:38.830Z,8.22
2023-04-01T02:30:08.465Z,8.24
2023-04-01T02:32:39.437Z,8.22
2023-04-01T02:35:11.562Z,8.20
2023-04-01T02:37:43.565Z,8.15
2023-04-01T02:40:14.017Z,8.10
2023-04-01T02:42:42.152Z,8.05
2023-04-01T02:45:11.519Z,8.01
2023-04-01T02:47:39.769Z,7.98
2023-04-01T02:50:10.286Z,7.95
2023-04-01T02:52:38.758Z,7.91
2023-04-01T02:55:07.490Z,7.88
2023-04-01T02:57:36.074Z,7.85
2023-04-01T03:00:04.567Z,7.81
2023-04-01T03:02:32.674Z,7.75
2023-04-01T03:05:00.873Z,7.72
2023-04-01T03:07:29.270Z,7.69
2023-04-01T03:09:57.531Z,7.64
2023-04-01T03:12:25.533Z,7.59
2023-04-01T03:14:53.835Z,7.52
2023-04-01T03:17:23.929Z,7.47
2023-04-01T03:19:52.434Z,7.46
2023-04-01T03:22:22.142Z,7.46
2023-04-01T03:24:51.173Z,7.47
2023-04-01T03:27:21.086Z,7.47
2023-04-01T03:29:49.895Z,7.48
2023-04-01T03:32:18.289Z,7.50
2023-04-01T03:34:46.493Z,7.53
2023-04-01T03:37:15.032Z,7.56
2023-04-01T03:39:44.526Z,7.58
2023-04-01T03:42:13.277Z,7.58
2023-04-01T03:44:41.338Z,7.61
2023-04-01T03:47:11.485Z,7.61
2023-04-01T03:49:41.345Z,7.57
2023-04-01T03:52:12.250Z,7.53
2023-04-01T03:54:40.574Z,7.54
2023-04-01T03:57:09.166Z,7.57
2023-04-01T03:59:37.840Z,7.59
2023-04-01T04:02:07.167Z,7.55
2023-04-01T04:04:35.645Z,7.47
2023-04-01T04:07:03.662Z,7.41
2023-04-01T04:09:36.673Z,7.39
2023-04-01T04:12:06.597Z,7.41
2023-04-01T04:14:34.917Z,7.44
2023-04-01T04:17:03.014Z,7.45
2023-04-01T04:19:36.991Z,7.50
2023-04-01T04:22:05.260Z,7.56
2023-04-01T04:24:35.790Z,7.60
2023-04-01T04:27:09.220Z,7.64
2023-04-01T04:29:39.075Z,7.67
2023-04-01T04:32:07.334Z,7.68
2023-04-01T04:34:35.606Z,7.67
2023-04-01T04:37:04.192Z,7.67
2023-04-01T04:39:34.998Z,7.63
2023-04-01T04:42:03.367Z,7.57
2023-04-01T04:44:31.885Z,7.58
2023-04-01T04:47:02.554Z,7.55
2023-04-01T04:49:31.428Z,7.51
2023-04-01T04:52:00.575Z,7.50
2023-04-01T04:54:29.041Z,7.49
2023-04-01T04:56:59.594Z,7.47
2023-04-01T04:59:29.127Z,7.46
2023-04-01T05:02:10.956Z,7.47
2023-04-01T05:04:39.360Z,7.45
2023-04-01T05:07:10.963Z,7.45
2023-04-01T05:10:03.153Z,7.44
2023-04-01T05:12:54.860Z,7.40
2023-04-01T05:15:49.050Z,7.36
2023-04-01T05:18:42.176Z,7.33
2023-04-01T05:21:34.032Z,7.29
2023-04-01T05:24:27.037Z,7.26
2023-04-01T05:27:19.007Z,7.21
2023-04-01T05:30:11.474Z,7.16
2023-04-01T05:33:25.042Z,7.13
2023-04-01T05:36:17.790Z,7.15
2023-04-01T05:39:10.124Z,7.20
2023-04-01T05:42:02.117Z,7.26
2023-04-01T05:44:54.221Z,7.37
2023-04-01T05:48:14.915Z,7.49
2023-04-01T05:51:07.160Z,7.58
2023-04-01T05:53:59.983Z,7.68
2023-04-01T05:56:52.233Z,7.74
2023-04-01T05:59:44.079Z,7.79
2023-04-01T06:02:39.408Z,7.86
2023-04-01T06:05:41.975Z,7.91
2023-04-01T06:08:34.126Z,7.97
2023-04-01T06:11:46.304Z,8.01
2023-04-01T06:14:40.982Z,8.01
2023-04-01T06:18:07.880Z,8.09
2023-04-01T06:21:33.929Z,8.14
2023-04-01T06:24:50.389Z,8.06
2023-04-01T06:27:42.584Z,8.01
2023-04-01T06:30:43.323Z,7.99
2023-04-01T06:34:22.962Z,8.02
2023-04-01T06:37:36.528Z,8.10
2023-04-01T06:40:47.318Z,8.15
2023-04-01T06:44:02.229Z,8.22
2023-04-01T06:47:20.401Z,8.33
2023-04-01T06:50:36.178Z,8.43
2023-04-01T06:54:11.269Z,8.53
2023-04-01T06:57:34.056Z,8.58
2023-04-01T07:00:45.892Z,8.58
2023-04-01T07:04:03.402Z,8.64
2023-04-01T07:07:35.782Z,8.68
2023-04-01T07:10:55.622Z,8.69
2023-04-01T07:14:41.536Z,8.68
2023-04-01T07:17:37.684Z,8.64
2023-04-01T07:20:36.308Z,8.56
2023-04-01T07:23:44.164Z,8.50
2023-04-01T07:26:54.073Z,8.42
2023-04-01T07:29:49.183Z,8.36
2023-04-01T07:33:07.758Z,8.32
2023-04-01T07:36:14.652Z,8.28
2023-04-01T07:39:28.048Z,8.23
2023-04-01T07:43:07.521Z,8.17
2023-04-01T07:46:09.187Z,8.14
2023-04-01T07:49:07.130Z,8.14
2023-04-01T07:52:22.146Z,8.16
2023-04-01T07:55:28.999Z,8.14
2023-04-01T07:58:52.590Z,8.12
2023-04-01T08:02:40.169Z,8.12
2023-04-01T08:06:25.981Z,8.19
2023-04-01T08:09:22.950Z,8.28
2023-04-01T08:12:43.735Z,8.32
2023-04-01T08:16:11.385Z,8.38
2023-04-01T08:19:53.322Z,8.45
2023-04-01T08:22:51.939Z,8.48
2023-04-01T08:26:09.877Z,8.52
2023-04-01T08:29:13.016Z,8.64
2023-04-01T08:32:14.217Z,8.76
2023-04-01T08:35:19.110Z,8.88
2023-04-01T08:38:20.361Z,8.96
2023-04-01T08:41:13.346Z,9.10
2023-04-01T08:44:53.742Z,9.28
2023-04-01T08:48:10.229Z,9.51
2023-04-01T08:51:16.458Z,9.77
2023-04-01T08:54:36.984Z,10.02
2023-04-01T08:58:12.799Z,10.40
2023-04-01T09:01:17.961Z,10.70
2023-04-01T09:04:44.231Z,10.88
2023-04-01T09:08:07.191Z,11.12
2023-04-01T09:11:35.638Z,11.22
2023-04-01T09:15:34.062Z,11.40
2023-04-01T09:18:29.054Z,11.50
2023-04-01T09:21:25.079Z,11.35
2023-04-01T09:24:26.282Z,11.26
2023-04-01T09:27:55.193Z,11.30
2023-04-01T09:31:34.387Z,11.31
2023-04-01T09:35:29.045Z,11.20
2023-04-01T09:38:38.004Z,11.00
2023-04-01T09:41:43.493Z,10.82
2023-04-01T09:45:00.211Z,10.62
2023-04-01T09:47:55.331Z,10.57
2023-04-01T09:51:22.050Z,10.64
2023-04-01T09:54:23.132Z,10.80
2023-04-01T09:57:41.501Z,10.91
2023-04-01T10:01:18.759Z,11.00
2023-04-01T10:04:35.958Z,11.16
2023-04-01T10:07:51.160Z,11.30
2023-04-01T10:11:11.620Z,11.36
2023-04-01T10:14:35.117Z,11.41
2023-04-01T10:17:42.866Z,11.47
2023-04-01T10:21:01.353Z,11.49
2023-04-01T10:24:12.571Z,11.58
2023-04-01T10:27:18.001Z,11.76
2023-04-01T10:31:12.438Z,11.96
2023-04-01T10:34:23.513Z,12.05
2023-04-01T10:37:39.131Z,11.97
2023-04-01T10:40:39.934Z,11.91
2023-04-01T10:44:12.464Z,12.02
2023-04-01T10:47:31.772Z,12.17
2023-04-01T10:50:36.594Z,12.28
2023-04-01T10:54:06.073Z,12.39
2023-04-01T10:57:56.962Z,12.53
2023-04-01T11:01:13.635Z,12.57
2023-04-01T11:04:48.795Z,12.43
2023-04-01T11:08:21.432Z,12.32
2023-04-01T11:11:23.586Z,12.27
2023-04-01T11:14:39.883Z,12.29
2023-04-01T11:17:38.550Z,12.37
2023-04-01T11:20:56.029Z,12.31
2023-04-01T11:24:05.980Z,12.15
2023-04-01T11:27:29.263Z,12.02
2023-04-01T11:30:44.355Z,11.86
2023-04-01T11:33:44.347Z,11.69
2023-04-01T11:36:48.587Z,11.53
2023-04-01T11:40:15.531Z,11.44
2023-04-01T11:43:45.326Z,11.32
2023-04-01T11:47:20.616Z,11.20
2023-04-01T11:50:30.871Z,11.06
2023-04-01T11:53:44.520Z,10.84
2023-04-01T11:56:54.848Z,10.68
2023-04-01T12:00:21.600Z,10.58
2023-04-01T12:03:23.015Z,10.47
2023-04-01T12:06:22.791Z,10.41
2023-04-01T12:09:31.254Z,10.38
2023-04-01T12:13:26.147Z,10.38
2023-04-01T12:16:37.153Z,10.46
2023-04-01T12:19:36.169Z,10.52
2023-04-01T12:22:59.204Z,10.60
2023-04-01T12:26:20.810Z,10.71
2023-04-01T12:29:44.204Z,10.86
2023-04-01T12:32:37.077Z,11.05
2023-04-01T12:35:45.198Z,11.25
2023-04-01T12:38:38.372Z,11.38
2023-04-01T12:41:52.034Z,11.42
2023-04-01T12:45:15.599Z,11.43
2023-04-01T12:48:18.209Z,11.48
2023-04-01T12:51:34.855Z,11.51
2023-04-01T12:54:46.387Z,11.58
2023-04-01T12:57:56.885Z,11.68
2023-04-01T13:01:18.462Z,11.75
2023-04-01T13:04:29.045Z,11.77
2023-04-01T13:07:49.267Z,11.74
2023-04-01T13:11:02.573Z,11.76
2023-04-01T13:13:57.583Z,11.73
2023-04-01T13:17:20.633Z,11.76
2023-04-01T13:20:12.455Z,11.83
2023-04-01T13:23:11.574Z,11.84
2023-04-01T13:26:23.910Z,11.83
2023-04-01T13:29:23.237Z,11.77
2023-04-01T13:32:15.663Z,11.77
2023-04-01T13:35:21.520Z,11.79
2023-04-01T13:38:47.137Z,11.84
2023-04-01T13:42:07.496Z,12.00
2023-04-01T13:45:20.784Z,12.21
2023-04-01T13:48:32.436Z,12.42
2023-04-01T13:52:04.035Z,12.73
2023-04-01T13:55:28.182Z,12.86
2023-04-01T13:58:32.331Z,12.85
2023-04-01T14:02:03.856Z,12.82
2023-04-01T14:05:32.503Z,12.69
2023-04-01T14:09:06.316Z,12.56
2023-04-01T14:12:08.348Z,12.49
2023-04-01T14:15:28.326Z,12.51
2023-04-01T14:18:34.576Z,12.49
2023-04-01T14:21:47.979Z,12.44
2023-04-01T14:25:07.460Z,12.39
2023-04-01T14:28:18.000Z,12.32
2023-04-01T14:31:31.914Z,12.23
2023-04-01T14:34:39.691Z,12.19
2023-04-01T14:37:47.708Z,12.16
2023-04-01T14:40:52.054Z,12.08
2023-04-01T14:44:03.312Z,12.02
2023-04-01T14:47:20.320Z,11.99
2023-04-01T14:50:20.351Z,11.89
2023-04-01T14:53:30.626Z,11.70
2023-04-01T14:56:41.315Z,11.58
2023-04-01T14:59:33.995Z,11.51
2023-04-01T15:02:40.038Z,11.48
2023-04-01T15:05:56.622Z,11.51
2023-04-01T15:08:54.307Z,11.56
2023-04-01T15:12:11.173Z,11.56
2023-04-01T15:15:34.198Z,11.58
2023-04-01T15:18:39.866Z,11.62
2023-04-01T15:21:45.107Z,11.66
2023-04-01T15:24:46.810Z,11.65
2023-04-01T15:28:18.670Z,11.62
2023-04-01T15:31:20.295Z,11.61
2023-04-01T15:34:42.684Z,11.59
2023-04-01T15:37:46.466Z,11.53
2023-04-01T15:41:09.240Z,11.48
2023-04-01T15:44:02.068Z,11.36
2023-04-01T15:46:58.270Z,11.25
2023-04-01T15:50:16.699Z,11.14
2023-04-01T15:53:21.134Z,11.05
2023-04-01T15:56:42.552Z,10.96
2023-04-01T15:59:53.991Z,10.83
2023-04-01T16:02:52.500Z,10.70
2023-04-01T16:05:53.360Z,10.60
2023-04-01T16:09:23.357Z,10.52
2023-04-01T16:12:18.705Z,10.40
2023-04-01T16:15:35.519Z,10.34
2023-04-01T16:18:42.933Z,10.27
2023-04-01T16:21:38.879Z,10.22
2023-04-01T16:24:34.430Z,10.19
2023-04-01T16:27:56.443Z,10.18
2023-04-01T16:31:10.767Z,10.15
2023-04-01T16:34:27.345Z,10.13
2023-04-01T16:37:34.751Z,10.11
2023-04-01T16:41:09.072Z,10.09
2023-04-01T16:44:15.440Z,10.08
2023-04-01T16:47:15.559Z,10.08
2023-04-01T16:50:40.946Z,10.11
2023-04-01T16:53:42.067Z,10.13
2023-04-01T16:56:43.901Z,10.13
2023-04-01T17:00:03.367Z,10.17
2023-04-01T17:03:09.624Z,10.23
2023-04-01T17:06:17.742Z,10.28
2023-04-01T17:09:25.224Z,10.31
2023-04-01T17:12:27.035Z,10.35
2023-04-01T17:15:46.262Z,10.38
2023-04-01T17:18:47.892Z,10.38
2023-04-01T17:22:03.060Z,10.38
2023-04-01T17:25:39.705Z,10.32
2023-04-01T17:28:38.330Z,10.23
2023-04-01T17:31:33.796Z,10.17
2023-04-01T17:34:40.085Z,10.12
2023-04-01T17:37:43.263Z,10.09
2023-04-01T17:40:58.834Z,10.08
2023-04-01T17:44:09.070Z,9.99
2023-04-01T17:47:10.167Z,9.91
2023-04-01T17:50:22.448Z,9.84
2023-04-01T17:53:21.933Z,9.80
2023-04-01T17:56:19.052Z,9.74
2023-04-01T17:59:46.526Z,9.71
2023-04-01T18:03:12.729Z,9.67
2023-04-01T18:06:10.802Z,9.63
2023-04-01T18:09:08.806Z,9.58
2023-04-01T18:12:06.181Z,9.59
2023-04-01T18:15:17.194Z,9.58
2023-04-01T18:18:56.598Z,9.54
2023-04-01T18:22:00.099Z,9.50
2023-04-01T18:25:18.905Z,9.46
2023-04-01T18:28:29.315Z,9.38
2023-04-01T18:31:26.855Z,9.33
2023-04-01T18:34:32.891Z,9.32
2023-04-01T18:37:48.009Z,9.30
2023-04-01T18:40:55.742Z,9.29
2023-04-01T18:43:57.873Z,9.25
2023-04-01T18:47:04.367Z,9.22
2023-04-01T18:50:08.033Z,9.16
2023-04-01T18:53:23.615Z,9.10
2023-04-01T18:56:27.572Z,9.05
2023-04-01T18:59:34.587Z,9.03
2023-04-01T19:02:49.787Z,9.00
2023-04-01T19:06:02.396Z,9.00
2023-04-01T19:08:56.533Z,8.95
2023-04-01T19:12:42.891Z,8.89
2023-04-01T19:15:54.888Z,8.83
2023-04-01T19:19:02.932Z,8.79
2023-04-01T19:21:59.044Z,8.78
2023-04-01T19:25:23.177Z,8.75
2023-04-01T19:28:41.339Z,8.71
2023-04-01T19:32:50.643Z,8.67
2023-04-01T19:36:12.255Z,8.62
2023-04-01T19:39:22.955Z,8.58
2023-04-01T19:43:11.086Z,8.54
2023-04-01T19:46:13.211Z,8.50
2023-04-01T19:49:28.054Z,8.46
2023-04-01T19:52:37.080Z,8.42
2023-04-01T19:55:28.554Z,8.41
2023-04-01T19:58:36.456Z,8.39
2023-04-01T20:01:44.933Z,8.40
2023-04-01T20:05:01.761Z,8.41
2023-04-01T20:08:13.760Z,8.44
2023-04-01T20:11:12.196Z,8.48
2023-04-01T20:14:33.990Z,8.52
2023-04-01T20:17:47.951Z,8.57
2023-04-01T20:21:07.092Z,8.61
2023-04-01T20:25:27.841Z,8.63
2023-04-01T20:29:26.828Z,8.71
2023-04-01T20:32:33.465Z,8.77
2023-04-01T20:36:51.564Z,8.83
2023-04-01T20:41:23.416Z,8.89
2023-04-01T20:45:14.297Z,8.97
2023-04-01T20:48:44.157Z,8.97
2023-04-01T20:52:10.148Z,8.99
2023-04-01T20:55:52.515Z,9.02
2023-04-01T20:58:52.653Z,9.00
2023-04-01T21:02:34.466Z,8.96
2023-04-01T21:05:49.706Z,8.94
2023-04-01T21:09:12.953Z,8.90
2023-04-01T21:12:10.642Z,8.85
2023-04-01T21:15:28.302Z,8.81
2023-04-01T21:18:39.429Z,8.76
2023-04-01T21:22:12.235Z,8.68
2023-04-01T21:25:22.644Z,8.60
2023-04-01T21:28:44.632Z,8.52
2023-04-01T21:32:30.292Z,8.46
2023-04-01T21:35:35.802Z,8.39
2023-04-01T21:38:58.816Z,8.35
2023-04-01T21:42:22.523Z,8.33
2023-04-01T21:45:38.062Z,8.31
2023-04-01T21:48:39.001Z,8.29
2023-04-01T21:51:34.769Z,8.26
2023-04-01T21:55:01.806Z,8.24
2023-04-01T21:58:24.982Z,8.20
2023-04-01T22:01:45.937Z,8.19
2023-04-01T22:05:25.044Z,8.16
2023-04-01T22:08:27.548Z,8.14
2023-04-01T22:11:36.572Z,8.14
2023-04-01T22:15:01.897Z,8.13
2023-04-01T22:18:07.752Z,8.13
2023-04-01T22:21:11.851Z,8.15
2023-04-01T22:24:26.731Z,8.19
2023-04-01T22:27:44.030Z,8.22
2023-04-01T22:30:56.345Z,8.26
2023-04-01T22:34:05.965Z,8.30
2023-04-01T22:37:26.601Z,8.35
2023-04-01T22:40:49.190Z,8.40
2023-04-01T22:44:00.674Z,8.45
2023-04-01T22:47:22.167Z,8.48
2023-04-01T22:50:29.454Z,8.49
2023-04-01T22:53:55.515Z,8.54
2023-04-01T22:57:03.073Z,8.62
2023-04-01T23:00:07.975Z,8.61
2023-04-01T23:03:02.680Z,8.61
2023-04-01T23:06:06.611Z,8.62
2023-04-01T23:09:25.309Z,8.60
2023-04-01T23:12:25.313Z,8.58
2023-04-01T23:15:22.076Z,8.53
2023-04-01T23:18:59.119Z,8.50
2023-04-01T23:22:03.634Z,8.44
2023-04-01T23:25:37.990Z,8.36
2023-04-01T23:28:42.152Z,8.28
2023-04-01T23:31:40.236Z,8.22
2023-04-01T23:34:50.709Z,8.17
2023-04-01T23:37:43.215Z,8.10
2023-04-01T23:40:36.640Z,8.05
2023-04-01T23:43:36.389Z,8.00
2023-04-01T23:46:32.791Z,7.97
2023-04-01T23:49:56.368Z,7.92
2023-04-01T23:52:59.729Z,7.88
2023-04-01T23:55:55.934Z,7.84
2023-04-01T23:58:57.828Z,7.81
